sensor_id;sensor_type;location;lat;lon;timestamp;temperature;humidity
43858;DHT22;29507;51.284;5.758;2022-08-19T00:00:37;17.40;99.90
43858;DHT22;29507;51.284;5.758;2022-08-19T00:03:03;17.30;99.90
43858;DHT22;29507;51.284;5.758;2022-08-19T00:05:29;17.30;99.90
43858;DHT22;29507;51.284;5.758;2022-08-19T00:07:55;17.30;99.90
43858;DHT22;29507;51.284;5.758;2022-08-19T00:10:21;17.30;99.90
43858;DHT22;29507;51.284;5.758;2022-08-19T00:12:47;17.30;99.90
43858;DHT22;29507;51.284;5.758;2022-08-19T00:15:16;17.30;99.90
43858;DHT22;29507;51.284;5.758;2022-08-19T00:17:43;17.30;99.90
43858;DHT22;29507;51.284;5.758;2022-08-19T00:20:12;17.20;99.90
43858;DHT22;29507;51.284;5.758;2022-08-19T00:22:38;17.30;99.90
43858;DHT22;29507;51.284;5.758;2022-08-19T00:25:05;17.20;99.90
43858;DHT22;29507;51.284;5.758;2022-08-19T00:27:31;17.20;99.90
43858;DHT22;29507;51.284;5.758;2022-08-19T00:29:57;17.20;99.90
43858;DHT22;29507;51.284;5.758;2022-08-19T00:32:24;17.20;99.90
43858;DHT22;29507;51.284;5.758;2022-08-19T00:34:51;17.20;99.90
43858;DHT22;29507;51.284;5.758;2022-08-19T00:37:21;17.20;99.90
43858;DHT22;29507;51.284;5.758;2022-08-19T00:39:48;17.10;99.90
43858;DHT22;29507;51.284;5.758;2022-08-19T00:42:14;17.10;99.90
43858;DHT22;29507;51.284;5.758;2022-08-19T00:44:41;17.10;99.90
43858;DHT22;29507;51.284;5.758;2022-08-19T00:47:07;17.00;99.90
43858;DHT22;29507;51.284;5.758;2022-08-19T00:49:52;17.00;99.90
43858;DHT22;29507;51.284;5.758;2022-08-19T00:52:31;17.00;99.90
43858;DHT22;29507;51.284;5.758;2022-08-19T00:54:58;17.10;99.90
43858;DHT22;29507;51.284;5.758;2022-08-19T00:57:35;17.10;99.90
43858;DHT22;29507;51.284;5.758;2022-08-19T01:00:06;17.10;99.90
43858;DHT22;29507;51.284;5.758;2022-08-19T01:02:34;17.00;99.90
43858;DHT22;29507;51.284;5.758;2022-08-19T01:05:02;16.90;99.90
43858;DHT22;29507;51.284;5.758;2022-08-19T01:07:28;16.90;99.90
43858;DHT22;29507;51.284;5.758;2022-08-19T01:09:54;16.80;99.90
43858;DHT22;29507;51.284;5.758;2022-08-19T01:12:20;16.80;99.90
43858;DHT22;29507;51.284;5.758;2022-08-19T01:14:47;16.80;99.90
43858;DHT22;29507;51.284;5.758;2022-08-19T01:17:15;16.80;99.90
43858;DHT22;29507;51.284;5.758;2022-08-19T01:19:42;16.80;99.90
43858;DHT22;29507;51.284;5.758;2022-08-19T01:24:50;16.70;99.90
43858;DHT22;29507;51.284;5.758;2022-08-19T01:27:16;16.70;99.90
43858;DHT22;29507;51.284;5.758;2022-08-19T01:29:43;16.70;99.90
43858;DHT22;29507;51.284;5.758;2022-08-19T01:32:12;16.70;99.90
43858;DHT22;29507;51.284;5.758;2022-08-19T01:34:39;16.60;99.90
43858;DHT22;29507;51.284;5.758;2022-08-19T01:37:10;16.50;99.90
43858;DHT22;29507;51.284;5.758;2022-08-19T01:39:38;16.50;99.90
43858;DHT22;29507;51.284;5.758;2022-08-19T01:42:06;16.40;99.90
43858;DHT22;29507;51.284;5.758;2022-08-19T01:44:35;16.40;99.90
43858;DHT22;29507;51.284;5.758;2022-08-19T01:47:02;16.40;99.90
43858;DHT22;29507;51.284;5.758;2022-08-19T01:49:28;16.40;99.90
43858;DHT22;29507;51.284;5.758;2022-08-19T01:51:54;16.40;99.90
43858;DHT22;29507;51.284;5.758;2022-08-19T01:54:22;16.40;99.90
43858;DHT22;29507;51.284;5.758;2022-08-19T01:56:48;16.30;99.90
43858;DHT22;29507;51.284;5.758;2022-08-19T01:59:19;16.30;99.90
43858;DHT22;29507;51.284;5.758;2022-08-19T02:01:46;16.30;99.90
43858;DHT22;29507;51.284;5.758;2022-08-19T02:04:11;16.30;99.90
43858;DHT22;29507;51.284;5.758;2022-08-19T02:06:37;16.30;99.90
43858;DHT22;29507;51.284;5.758;2022-08-19T02:09:04;16.30;99.90
43858;DHT22;29507;51.284;5.758;2022-08-19T02:11:32;16.20;99.90
43858;DHT22;29507;51.284;5.758;2022-08-19T02:14:00;16.20;99.90
43858;DHT22;29507;51.284;5.758;2022-08-19T02:16:28;16.20;99.90
43858;DHT22;29507;51.284;5.758;2022-08-19T02:18:53;16.20;99.90
43858;DHT22;29507;51.284;5.758;2022-08-19T02:21:21;16.20;99.90
43858;DHT22;29507;51.284;5.758;2022-08-19T02:23:48;16.20;99.90
43858;DHT22;29507;51.284;5.758;2022-08-19T02:26:15;16.20;99.90
43858;DHT22;29507;51.284;5.758;2022-08-19T02:28:41;16.20;99.90
43858;DHT22;29507;51.284;5.758;2022-08-19T02:31:12;16.10;99.90
43858;DHT22;29507;51.284;5.758;2022-08-19T02:33:40;16.10;99.90
43858;DHT22;29507;51.284;5.758;2022-08-19T02:36:07;16.10;99.90
43858;DHT22;29507;51.284;5.758;2022-08-19T02:38:32;16.10;99.90
43858;DHT22;29507;51.284;5.758;2022-08-19T02:41:04;16.10;99.90
43858;DHT22;29507;51.284;5.758;2022-08-19T02:43:31;16.10;99.90
43858;DHT22;29507;51.284;5.758;2022-08-19T02:45:57;16.10;99.90
43858;DHT22;29507;51.284;5.758;2022-08-19T02:48:24;16.10;99.90
43858;DHT22;29507;51.284;5.758;2022-08-19T02:50:52;16.10;99.90
43858;DHT22;29507;51.284;5.758;2022-08-19T02:53:25;16.10;99.90
43858;DHT22;29507;51.284;5.758;2022-08-19T02:55:51;16.20;99.90
43858;DHT22;29507;51.284;5.758;2022-08-19T02:58:21;16.20;99.90
43858;DHT22;29507;51.284;5.758;2022-08-19T03:00:50;16.10;99.90
43858;DHT22;29507;51.284;5.758;2022-08-19T03:03:16;16.10;99.90
43858;DHT22;29507;51.284;5.758;2022-08-19T03:05:43;16.10;99.90
43858;DHT22;29507;51.284;5.758;2022-08-19T03:08:09;16.20;99.90
43858;DHT22;29507;51.284;5.758;2022-08-19T03:10:47;16.20;99.90
43858;DHT22;29507;51.284;5.758;2022-08-19T03:13:15;16.20;99.90
43858;DHT22;29507;51.284;5.758;2022-08-19T03:15:47;16.20;99.90
43858;DHT22;29507;51.284;5.758;2022-08-19T03:18:13;16.20;99.90
43858;DHT22;29507;51.284;5.758;2022-08-19T03:20:51;16.20;99.90
43858;DHT22;29507;51.284;5.758;2022-08-19T03:23:19;16.20;99.90
43858;DHT22;29507;51.284;5.758;2022-08-19T03:25:47;16.10;99.90
43858;DHT22;29507;51.284;5.758;2022-08-19T03:28:15;16.10;99.90
43858;DHT22;29507;51.284;5.758;2022-08-19T03:30:53;16.00;99.90
43858;DHT22;29507;51.284;5.758;2022-08-19T03:33:21;15.90;99.90
43858;DHT22;29507;51.284;5.758;2022-08-19T03:35:47;15.90;99.90
43858;DHT22;29507;51.284;5.758;2022-08-19T03:38:12;15.90;99.90
43858;DHT22;29507;51.284;5.758;2022-08-19T03:40:38;15.90;99.90
43858;DHT22;29507;51.284;5.758;2022-08-19T03:43:03;15.80;99.90
43858;DHT22;29507;51.284;5.758;2022-08-19T03:45:29;15.80;99.90
43858;DHT22;29507;51.284;5.758;2022-08-19T03:47:55;15.80;99.90
43858;DHT22;29507;51.284;5.758;2022-08-19T03:50:21;15.80;99.90
43858;DHT22;29507;51.284;5.758;2022-08-19T03:52:51;15.70;99.90
43858;DHT22;29507;51.284;5.758;2022-08-19T03:55:18;15.80;99.90
43858;DHT22;29507;51.284;5.758;2022-08-19T03:57:44;15.70;99.90
43858;DHT22;29507;51.284;5.758;2022-08-19T04:00:11;15.70;99.90
43858;DHT22;29507;51.284;5.758;2022-08-19T04:02:37;15.70;99.90
43858;DHT22;29507;51.284;5.758;2022-08-19T04:05:03;15.60;99.90
43858;DHT22;29507;51.284;5.758;2022-08-19T04:07:30;15.60;99.90
43858;DHT22;29507;51.284;5.758;2022-08-19T04:09:56;15.60;99.90
43858;DHT22;29507;51.284;5.758;2022-08-19T04:12:22;15.60;99.90
43858;DHT22;29507;51.284;5.758;2022-08-19T04:14:48;15.50;99.90
43858;DHT22;29507;51.284;5.758;2022-08-19T04:17:13;15.50;99.90
43858;DHT22;29507;51.284;5.758;2022-08-19T04:19:40;15.50;99.90
43858;DHT22;29507;51.284;5.758;2022-08-19T04:22:08;15.50;99.90
43858;DHT22;29507;51.284;5.758;2022-08-19T04:24:34;15.50;99.90
43858;DHT22;29507;51.284;5.758;2022-08-19T04:27:01;15.40;99.90
43858;DHT22;29507;51.284;5.758;2022-08-19T04:29:28;15.40;99.90
43858;DHT22;29507;51.284;5.758;2022-08-19T04:31:56;15.40;99.90
43858;DHT22;29507;51.284;5.758;2022-08-19T04:34:25;15.40;99.90
43858;DHT22;29507;51.284;5.758;2022-08-19T04:36:53;15.40;99.90
43858;DHT22;29507;51.284;5.758;2022-08-19T04:39:25;15.40;99.90
43858;DHT22;29507;51.284;5.758;2022-08-19T04:42:09;15.40;99.90
43858;DHT22;29507;51.284;5.758;2022-08-19T04:44:54;15.30;99.90
43858;DHT22;29507;51.284;5.758;2022-08-19T04:47:20;15.30;99.90
43858;DHT22;29507;51.284;5.758;2022-08-19T04:49:45;15.30;99.90
43858;DHT22;29507;51.284;5.758;2022-08-19T04:52:11;15.30;99.90
43858;DHT22;29507;51.284;5.758;2022-08-19T04:54:37;15.30;99.90
43858;DHT22;29507;51.284;5.758;2022-08-19T04:57:02;15.30;99.90
43858;DHT22;29507;51.284;5.758;2022-08-19T04:59:31;15.40;99.90
43858;DHT22;29507;51.284;5.758;2022-08-19T05:01:58;15.40;99.90
43858;DHT22;29507;51.284;5.758;2022-08-19T05:04:24;15.50;99.90
43858;DHT22;29507;51.284;5.758;2022-08-19T05:06:50;15.50;99.90
43858;DHT22;29507;51.284;5.758;2022-08-19T05:09:17;15.50;99.90
43858;DHT22;29507;51.284;5.758;2022-08-19T05:11:43;15.60;99.90
43858;DHT22;29507;51.284;5.758;2022-08-19T05:14:10;15.70;99.90
43858;DHT22;29507;51.284;5.758;2022-08-19T05:16:38;15.80;99.90
43858;DHT22;29507;51.284;5.758;2022-08-19T05:19:03;15.80;99.90
43858;DHT22;29507;51.284;5.758;2022-08-19T05:21:48;15.90;99.90
43858;DHT22;29507;51.284;5.758;2022-08-19T05:24:32;15.90;99.90
43858;DHT22;29507;51.284;5.758;2022-08-19T05:27:00;16.00;99.90
43858;DHT22;29507;51.284;5.758;2022-08-19T05:29:28;16.00;99.90
43858;DHT22;29507;51.284;5.758;2022-08-19T05:31:54;16.10;99.90
43858;DHT22;29507;51.284;5.758;2022-08-19T05:34:21;16.10;99.90
43858;DHT22;29507;51.284;5.758;2022-08-19T05:36:49;16.20;99.90
43858;DHT22;29507;51.284;5.758;2022-08-19T05:39:19;16.30;99.90
43858;DHT22;29507;51.284;5.758;2022-08-19T05:41:52;16.40;99.90
43858;DHT22;29507;51.284;5.758;2022-08-19T05:44:18;16.50;99.90
43858;DHT22;29507;51.284;5.758;2022-08-19T05:46:47;16.70;99.90
43858;DHT22;29507;51.284;5.758;2022-08-19T05:49:14;16.90;99.90
43858;DHT22;29507;51.284;5.758;2022-08-19T05:51:41;17.00;99.90
43858;DHT22;29507;51.284;5.758;2022-08-19T05:54:08;17.20;99.90
43858;DHT22;29507;51.284;5.758;2022-08-19T05:56:35;17.40;99.90
43858;DHT22;29507;51.284;5.758;2022-08-19T05:59:04;17.60;99.90
43858;DHT22;29507;51.284;5.758;2022-08-19T06:01:34;17.80;99.90
43858;DHT22;29507;51.284;5.758;2022-08-19T06:04:00;17.90;99.90
43858;DHT22;29507;51.284;5.758;2022-08-19T06:06:25;17.90;99.90
43858;DHT22;29507;51.284;5.758;2022-08-19T06:08:51;17.90;99.90
43858;DHT22;29507;51.284;5.758;2022-08-19T06:13:45;18.00;99.90
43858;DHT22;29507;51.284;5.758;2022-08-19T06:16:13;18.10;99.90
43858;DHT22;29507;51.284;5.758;2022-08-19T06:18:45;18.10;99.90
43858;DHT22;29507;51.284;5.758;2022-08-19T06:21:11;18.30;99.90
43858;DHT22;29507;51.284;5.758;2022-08-19T06:23:37;18.40;99.90
43858;DHT22;29507;51.284;5.758;2022-08-19T06:26:03;18.30;99.90
43858;DHT22;29507;51.284;5.758;2022-08-19T06:28:29;18.20;99.90
43858;DHT22;29507;51.284;5.758;2022-08-19T06:30:55;18.00;99.90
43858;DHT22;29507;51.284;5.758;2022-08-19T06:33:20;17.90;99.90
43858;DHT22;29507;51.284;5.758;2022-08-19T06:35:46;17.80;99.90
43858;DHT22;29507;51.284;5.758;2022-08-19T06:38:12;17.80;99.90
43858;DHT22;29507;51.284;5.758;2022-08-19T06:40:37;17.80;99.90
43858;DHT22;29507;51.284;5.758;2022-08-19T06:43:03;17.80;99.90
43858;DHT22;29507;51.284;5.758;2022-08-19T06:45:29;17.90;99.90
43858;DHT22;29507;51.284;5.758;2022-08-19T06:47:56;17.90;99.90
43858;DHT22;29507;51.284;5.758;2022-08-19T06:50:25;18.00;99.90
43858;DHT22;29507;51.284;5.758;2022-08-19T06:52:51;18.00;99.90
43858;DHT22;29507;51.284;5.758;2022-08-19T06:55:16;18.00;99.90
43858;DHT22;29507;51.284;5.758;2022-08-19T06:57:42;18.10;99.90
43858;DHT22;29507;51.284;5.758;2022-08-19T07:00:11;18.40;99.90
43858;DHT22;29507;51.284;5.758;2022-08-19T07:02:40;18.80;99.90
43858;DHT22;29507;51.284;5.758;2022-08-19T07:05:06;19.20;99.90
43858;DHT22;29507;51.284;5.758;2022-08-19T07:07:33;19.50;99.90
43858;DHT22;29507;51.284;5.758;2022-08-19T07:09:59;19.80;99.90
43858;DHT22;29507;51.284;5.758;2022-08-19T07:12:24;19.80;99.90
43858;DHT22;29507;51.284;5.758;2022-08-19T07:14:51;20.20;99.90
43858;DHT22;29507;51.284;5.758;2022-08-19T07:17:18;20.20;99.90
43858;DHT22;29507;51.284;5.758;2022-08-19T07:19:45;20.00;99.90
43858;DHT22;29507;51.284;5.758;2022-08-19T07:22:10;19.70;99.90
43858;DHT22;29507;51.284;5.758;2022-08-19T07:24:37;19.60;99.90
43858;DHT22;29507;51.284;5.758;2022-08-19T07:27:05;19.90;99.90
43858;DHT22;29507;51.284;5.758;2022-08-19T07:29:33;20.20;99.90
43858;DHT22;29507;51.284;5.758;2022-08-19T07:32:00;20.40;99.90
43858;DHT22;29507;51.284;5.758;2022-08-19T07:34:28;20.60;99.90
43858;DHT22;29507;51.284;5.758;2022-08-19T07:36:54;20.80;99.90
43858;DHT22;29507;51.284;5.758;2022-08-19T07:39:24;21.00;99.90
43858;DHT22;29507;51.284;5.758;2022-08-19T07:41:50;21.00;99.90
43858;DHT22;29507;51.284;5.758;2022-08-19T07:44:17;21.00;99.90
43858;DHT22;29507;51.284;5.758;2022-08-19T07:46:45;21.30;99.90
43858;DHT22;29507;51.284;5.758;2022-08-19T07:49:12;21.70;99.90
43858;DHT22;29507;51.284;5.758;2022-08-19T07:51:48;22.00;99.90
43858;DHT22;29507;51.284;5.758;2022-08-19T07:54:15;22.20;99.90
43858;DHT22;29507;51.284;5.758;2022-08-19T07:56:41;22.50;99.90
43858;DHT22;29507;51.284;5.758;2022-08-19T07:59:06;22.80;99.90
43858;DHT22;29507;51.284;5.758;2022-08-19T08:01:34;22.90;99.90
43858;DHT22;29507;51.284;5.758;2022-08-19T08:04:00;23.30;99.90
43858;DHT22;29507;51.284;5.758;2022-08-19T08:06:45;23.60;99.90
43858;DHT22;29507;51.284;5.758;2022-08-19T08:09:32;23.80;99.90
43858;DHT22;29507;51.284;5.758;2022-08-19T08:12:15;23.90;99.90
43858;DHT22;29507;51.284;5.758;2022-08-19T08:14:47;23.90;99.90
43858;DHT22;29507;51.284;5.758;2022-08-19T08:17:15;24.00;99.90
43858;DHT22;29507;51.284;5.758;2022-08-19T08:19:42;24.00;99.90
43858;DHT22;29507;51.284;5.758;2022-08-19T08:22:09;24.20;99.90
43858;DHT22;29507;51.284;5.758;2022-08-19T08:24:55;24.50;99.90
43858;DHT22;29507;51.284;5.758;2022-08-19T08:27:23;24.80;99.90
43858;DHT22;29507;51.284;5.758;2022-08-19T08:29:49;24.60;99.90
43858;DHT22;29507;51.284;5.758;2022-08-19T08:32:16;24.50;99.90
43858;DHT22;29507;51.284;5.758;2022-08-19T08:34:42;24.50;99.90
43858;DHT22;29507;51.284;5.758;2022-08-19T08:37:08;24.50;99.90
43858;DHT22;29507;51.284;5.758;2022-08-19T08:39:33;24.60;99.90
43858;DHT22;29507;51.284;5.758;2022-08-19T08:42:30;25.10;99.50
43858;DHT22;29507;51.284;5.758;2022-08-19T08:45:00;25.60;98.50
43858;DHT22;29507;51.284;5.758;2022-08-19T08:47:30;26.00;91.40
43858;DHT22;29507;51.284;5.758;2022-08-19T08:50:18;25.40;93.60
43858;DHT22;29507;51.284;5.758;2022-08-19T08:52:47;25.30;94.80
43858;DHT22;29507;51.284;5.758;2022-08-19T08:55:17;25.30;95.80
43858;DHT22;29507;51.284;5.758;2022-08-19T09:00:25;24.70;99.60
43858;DHT22;29507;51.284;5.758;2022-08-19T09:02:53;24.80;99.70
43858;DHT22;29507;51.284;5.758;2022-08-19T09:05:20;25.30;95.50
43858;DHT22;29507;51.284;5.758;2022-08-19T09:08:04;25.60;94.10
43858;DHT22;29507;51.284;5.758;2022-08-19T09:10:37;25.80;92.90
43858;DHT22;29507;51.284;5.758;2022-08-19T09:13:21;26.30;90.80
43858;DHT22;29507;51.284;5.758;2022-08-19T09:16:07;26.30;86.90
43858;DHT22;29507;51.284;5.758;2022-08-19T09:18:48;26.40;86.90
43858;DHT22;29507;51.284;5.758;2022-08-19T09:21:17;27.00;83.20
43858;DHT22;29507;51.284;5.758;2022-08-19T09:23:44;27.00;84.20
43858;DHT22;29507;51.284;5.758;2022-08-19T09:26:16;27.40;79.40
43858;DHT22;29507;51.284;5.758;2022-08-19T09:28:45;27.10;79.60
43858;DHT22;29507;51.284;5.758;2022-08-19T09:31:12;27.30;78.60
43858;DHT22;29507;51.284;5.758;2022-08-19T09:33:38;27.20;78.20
43858;DHT22;29507;51.284;5.758;2022-08-19T09:36:06;27.10;79.10
43858;DHT22;29507;51.284;5.758;2022-08-19T09:38:33;27.10;79.90
43858;DHT22;29507;51.284;5.758;2022-08-19T09:41:06;27.20;79.10
43858;DHT22;29507;51.284;5.758;2022-08-19T09:43:33;27.00;79.20
43858;DHT22;29507;51.284;5.758;2022-08-19T09:46:06;27.60;78.40
43858;DHT22;29507;51.284;5.758;2022-08-19T09:48:32;27.40;78.70
43858;DHT22;29507;51.284;5.758;2022-08-19T09:51:05;27.50;78.10
43858;DHT22;29507;51.284;5.758;2022-08-19T09:53:31;27.70;77.50
43858;DHT22;29507;51.284;5.758;2022-08-19T09:55:57;27.50;76.60
43858;DHT22;29507;51.284;5.758;2022-08-19T09:58:23;26.80;78.00
43858;DHT22;29507;51.284;5.758;2022-08-19T10:00:54;27.10;79.60
43858;DHT22;29507;51.284;5.758;2022-08-19T10:03:20;27.60;77.50
43858;DHT22;29507;51.284;5.758;2022-08-19T10:05:45;28.00;74.70
43858;DHT22;29507;51.284;5.758;2022-08-19T10:08:16;27.50;74.10
43858;DHT22;29507;51.284;5.758;2022-08-19T10:10:42;26.70;75.30
43858;DHT22;29507;51.284;5.758;2022-08-19T10:13:11;26.60;77.00
43858;DHT22;29507;51.284;5.758;2022-08-19T10:15:37;27.10;76.00
43858;DHT22;29507;51.284;5.758;2022-08-19T10:18:06;26.80;75.80
43858;DHT22;29507;51.284;5.758;2022-08-19T10:20:32;26.40;76.90
43858;DHT22;29507;51.284;5.758;2022-08-19T10:23:01;26.70;76.70
43858;DHT22;29507;51.284;5.758;2022-08-19T10:25:28;27.20;72.70
43858;DHT22;29507;51.284;5.758;2022-08-19T10:27:54;27.60;72.80
43858;DHT22;29507;51.284;5.758;2022-08-19T10:30:21;28.10;72.40
43858;DHT22;29507;51.284;5.758;2022-08-19T10:32:47;28.80;70.70
43858;DHT22;29507;51.284;5.758;2022-08-19T10:35:13;28.50;70.20
43858;DHT22;29507;51.284;5.758;2022-08-19T10:37:39;28.40;69.70
43858;DHT22;29507;51.284;5.758;2022-08-19T10:40:07;28.30;69.60
43858;DHT22;29507;51.284;5.758;2022-08-19T10:42:34;27.50;70.80
43858;DHT22;29507;51.284;5.758;2022-08-19T10:45:01;27.40;71.60
43858;DHT22;29507;51.284;5.758;2022-08-19T10:47:27;26.50;73.50
43858;DHT22;29507;51.284;5.758;2022-08-19T10:49:53;27.10;75.10
43858;DHT22;29507;51.284;5.758;2022-08-19T10:52:43;27.30;71.70
43858;DHT22;29507;51.284;5.758;2022-08-19T10:55:09;27.20;73.60
43858;DHT22;29507;51.284;5.758;2022-08-19T10:57:53;27.10;73.20
43858;DHT22;29507;51.284;5.758;2022-08-19T11:00:23;27.30;74.50
43858;DHT22;29507;51.284;5.758;2022-08-19T11:02:50;28.10;72.30
43858;DHT22;29507;51.284;5.758;2022-08-19T11:05:16;28.20;70.80
43858;DHT22;29507;51.284;5.758;2022-08-19T11:07:43;27.70;71.50
43858;DHT22;29507;51.284;5.758;2022-08-19T11:10:11;27.80;72.10
43858;DHT22;29507;51.284;5.758;2022-08-19T11:12:38;28.20;71.20
43858;DHT22;29507;51.284;5.758;2022-08-19T11:15:08;28.20;70.80
43858;DHT22;29507;51.284;5.758;2022-08-19T11:17:39;27.50;71.10
43858;DHT22;29507;51.284;5.758;2022-08-19T11:20:10;26.90;74.20
43858;DHT22;29507;51.284;5.758;2022-08-19T11:22:37;27.60;74.30
43858;DHT22;29507;51.284;5.758;2022-08-19T11:25:03;27.70;74.20
43858;DHT22;29507;51.284;5.758;2022-08-19T11:27:29;27.50;74.40
43858;DHT22;29507;51.284;5.758;2022-08-19T11:29:55;28.40;74.80
43858;DHT22;29507;51.284;5.758;2022-08-19T11:32:21;28.50;71.00
43858;DHT22;29507;51.284;5.758;2022-08-19T11:34:47;28.60;71.30
43858;DHT22;29507;51.284;5.758;2022-08-19T11:37:13;29.50;70.60
43858;DHT22;29507;51.284;5.758;2022-08-19T11:39:38;29.80;68.00
43858;DHT22;29507;51.284;5.758;2022-08-19T11:42:06;28.20;70.10
43858;DHT22;29507;51.284;5.758;2022-08-19T11:44:52;27.60;73.40
43858;DHT22;29507;51.284;5.758;2022-08-19T11:47:18;28.00;72.40
43858;DHT22;29507;51.284;5.758;2022-08-19T11:49:43;28.40;70.70
43858;DHT22;29507;51.284;5.758;2022-08-19T11:52:09;29.10;70.70
43858;DHT22;29507;51.284;5.758;2022-08-19T11:54:35;29.90;67.40
43858;DHT22;29507;51.284;5.758;2022-08-19T11:57:03;30.20;66.80
43858;DHT22;29507;51.284;5.758;2022-08-19T11:59:29;30.60;66.00
43858;DHT22;29507;51.284;5.758;2022-08-19T12:01:55;31.20;65.80
43858;DHT22;29507;51.284;5.758;2022-08-19T12:04:21;31.30;64.40
43858;DHT22;29507;51.284;5.758;2022-08-19T12:06:47;30.50;66.20
43858;DHT22;29507;51.284;5.758;2022-08-19T12:09:13;30.40;67.20
43858;DHT22;29507;51.284;5.758;2022-08-19T12:11:40;31.10;65.20
43858;DHT22;29507;51.284;5.758;2022-08-19T12:14:09;30.70;64.20
43858;DHT22;29507;51.284;5.758;2022-08-19T12:16:35;30.70;65.70
43858;DHT22;29507;51.284;5.758;2022-08-19T12:19:01;30.70;66.00
43858;DHT22;29507;51.284;5.758;2022-08-19T12:21:30;30.00;68.60
43858;DHT22;29507;51.284;5.758;2022-08-19T12:23:58;30.50;69.00
43858;DHT22;29507;51.284;5.758;2022-08-19T12:26:25;30.80;67.00
43858;DHT22;29507;51.284;5.758;2022-08-19T12:28:52;31.10;66.10
43858;DHT22;29507;51.284;5.758;2022-08-19T12:31:18;31.40;65.80
43858;DHT22;29507;51.284;5.758;2022-08-19T12:33:45;30.40;66.20
43858;DHT22;29507;51.284;5.758;2022-08-19T12:36:13;30.00;67.20
43858;DHT22;29507;51.284;5.758;2022-08-19T12:38:42;29.90;67.50
43858;DHT22;29507;51.284;5.758;2022-08-19T12:41:12;30.00;68.30
43858;DHT22;29507;51.284;5.758;2022-08-19T12:43:38;30.20;67.50
43858;DHT22;29507;51.284;5.758;2022-08-19T12:46:05;30.50;67.30
43858;DHT22;29507;51.284;5.758;2022-08-19T12:48:32;29.80;67.70
43858;DHT22;29507;51.284;5.758;2022-08-19T12:50:58;29.50;70.00
43858;DHT22;29507;51.284;5.758;2022-08-19T12:53:24;29.00;70.40
43858;DHT22;29507;51.284;5.758;2022-08-19T12:56:00;29.00;71.10
43858;DHT22;29507;51.284;5.758;2022-08-19T12:58:26;28.30;72.40
43858;DHT22;29507;51.284;5.758;2022-08-19T13:00:52;28.20;73.80
43858;DHT22;29507;51.284;5.758;2022-08-19T13:03:18;28.20;74.10
43858;DHT22;29507;51.284;5.758;2022-08-19T13:05:44;27.80;75.20
43858;DHT22;29507;51.284;5.758;2022-08-19T13:08:09;27.70;76.40
43858;DHT22;29507;51.284;5.758;2022-08-19T13:10:36;28.10;76.00
43858;DHT22;29507;51.284;5.758;2022-08-19T13:13:07;27.80;76.70
43858;DHT22;29507;51.284;5.758;2022-08-19T13:15:39;28.00;76.90
43858;DHT22;29507;51.284;5.758;2022-08-19T13:18:06;27.90;77.10
43858;DHT22;29507;51.284;5.758;2022-08-19T13:20:35;27.80;77.60
43858;DHT22;29507;51.284;5.758;2022-08-19T13:23:00;28.50;76.50
43858;DHT22;29507;51.284;5.758;2022-08-19T13:25:26;30.00;74.50
43858;DHT22;29507;51.284;5.758;2022-08-19T13:27:52;31.10;70.90
43858;DHT22;29507;51.284;5.758;2022-08-19T13:30:19;30.80;68.70
43858;DHT22;29507;51.284;5.758;2022-08-19T13:33:05;29.30;71.60
43858;DHT22;29507;51.284;5.758;2022-08-19T13:35:38;29.30;72.20
43858;DHT22;29507;51.284;5.758;2022-08-19T13:38:04;30.10;72.30
43858;DHT22;29507;51.284;5.758;2022-08-19T13:40:31;30.30;70.00
43858;DHT22;29507;51.284;5.758;2022-08-19T13:42:59;31.30;69.80
43858;DHT22;29507;51.284;5.758;2022-08-19T13:45:25;32.90;68.00
43858;DHT22;29507;51.284;5.758;2022-08-19T13:47:53;33.40;66.10
43858;DHT22;29507;51.284;5.758;2022-08-19T13:50:21;33.10;64.50
43858;DHT22;29507;51.284;5.758;2022-08-19T13:52:48;32.50;65.30
43858;DHT22;29507;51.284;5.758;2022-08-19T13:55:15;30.90;67.90
43858;DHT22;29507;51.284;5.758;2022-08-19T13:57:41;30.60;68.40
43858;DHT22;29507;51.284;5.758;2022-08-19T14:00:14;29.90;70.00
43858;DHT22;29507;51.284;5.758;2022-08-19T14:02:40;28.80;72.50
43858;DHT22;29507;51.284;5.758;2022-08-19T14:05:09;27.80;74.70
43858;DHT22;29507;51.284;5.758;2022-08-19T14:07:35;27.70;77.00
43858;DHT22;29507;51.284;5.758;2022-08-19T14:10:02;27.20;78.20
43858;DHT22;29507;51.284;5.758;2022-08-19T14:12:28;26.80;80.00
43858;DHT22;29507;51.284;5.758;2022-08-19T14:14:54;26.60;81.50
43858;DHT22;29507;51.284;5.758;2022-08-19T14:17:20;26.40;83.30
43858;DHT22;29507;51.284;5.758;2022-08-19T14:19:46;26.20;86.00
43858;DHT22;29507;51.284;5.758;2022-08-19T14:22:13;25.90;90.30
43858;DHT22;29507;51.284;5.758;2022-08-19T14:24:38;25.90;91.90
43858;DHT22;29507;51.284;5.758;2022-08-19T14:27:07;25.90;92.40
43858;DHT22;29507;51.284;5.758;2022-08-19T14:29:33;25.90;92.80
43858;DHT22;29507;51.284;5.758;2022-08-19T14:31:59;25.90;93.90
43858;DHT22;29507;51.284;5.758;2022-08-19T14:34:26;26.00;93.20
43858;DHT22;29507;51.284;5.758;2022-08-19T14:36:52;26.00;93.90
43858;DHT22;29507;51.284;5.758;2022-08-19T14:39:18;26.50;92.10
43858;DHT22;29507;51.284;5.758;2022-08-19T14:41:43;27.90;87.70
43858;DHT22;29507;51.284;5.758;2022-08-19T14:44:11;28.40;81.90
43858;DHT22;29507;51.284;5.758;2022-08-19T14:46:38;28.80;80.70
43858;DHT22;29507;51.284;5.758;2022-08-19T14:49:06;29.00;78.70
43858;DHT22;29507;51.284;5.758;2022-08-19T14:51:31;29.00;78.60
43858;DHT22;29507;51.284;5.758;2022-08-19T14:53:57;29.30;78.10
43858;DHT22;29507;51.284;5.758;2022-08-19T14:56:25;29.20;77.10
43858;DHT22;29507;51.284;5.758;2022-08-19T14:58:52;29.20;76.70
43858;DHT22;29507;51.284;5.758;2022-08-19T15:01:19;29.00;76.60
43858;DHT22;29507;51.284;5.758;2022-08-19T15:03:46;28.90;78.50
43858;DHT22;29507;51.284;5.758;2022-08-19T15:06:12;28.80;79.50
43858;DHT22;29507;51.284;5.758;2022-08-19T15:08:39;28.60;79.30
43858;DHT22;29507;51.284;5.758;2022-08-19T15:11:12;28.50;78.80
43858;DHT22;29507;51.284;5.758;2022-08-19T15:13:40;27.90;80.60
43858;DHT22;29507;51.284;5.758;2022-08-19T15:16:06;27.70;82.60
43858;DHT22;29507;51.284;5.758;2022-08-19T15:18:32;27.70;82.40
43858;DHT22;29507;51.284;5.758;2022-08-19T15:20:58;27.50;83.70
43858;DHT22;29507;51.284;5.758;2022-08-19T15:23:25;27.60;84.10
43858;DHT22;29507;51.284;5.758;2022-08-19T15:25:50;27.60;81.70
43858;DHT22;29507;51.284;5.758;2022-08-19T15:28:21;27.40;83.30
43858;DHT22;29507;51.284;5.758;2022-08-19T15:30:47;27.00;85.10
43858;DHT22;29507;51.284;5.758;2022-08-19T15:33:13;26.60;88.10
43858;DHT22;29507;51.284;5.758;2022-08-19T15:35:46;26.30;90.40
43858;DHT22;29507;51.284;5.758;2022-08-19T15:38:13;26.10;92.50
43858;DHT22;29507;51.284;5.758;2022-08-19T15:40:40;25.80;95.10
43858;DHT22;29507;51.284;5.758;2022-08-19T15:43:06;25.50;97.70